createdAt,value
2023-02-12T00:00:56.489Z,4.70
2023-02-12T00:04:02.219Z,4.00
2023-02-12T00:07:04.439Z,6.40
2023-02-12T00:10:07.432Z,4.00
2023-02-12T00:13:12.782Z,5.70
2023-02-12T00:16:17.826Z,8.50
2023-02-12T00:19:19.905Z,7.28
2023-02-12T00:22:22.076Z,5.40
2023-02-12T00:25:24.158Z,3.67
2023-02-12T00:28:26.771Z,3.10
2023-02-12T00:31:31.400Z,5.27
2023-02-12T00:34:33.539Z,5.53
2023-02-12T00:37:35.539Z,6.00
2023-02-12T00:40:37.739Z,5.07
2023-02-12T00:43:40.084Z,3.53
2023-02-12T00:46:42.456Z,6.03
2023-02-12T00:49:44.801Z,3.53
2023-02-12T00:52:47.240Z,2.93
2023-02-12T00:55:50.015Z,3.93
2023-02-12T00:58:52.087Z,4.47
2023-02-12T01:01:55.621Z,5.30
2023-02-12T01:04:58.700Z,7.20
2023-02-12T01:08:01.540Z,3.37
2023-02-12T01:11:06.361Z,4.47
2023-02-12T01:14:10.892Z,3.53
2023-02-12T01:17:15.842Z,6.37
2023-02-12T01:20:18.752Z,2.80
2023-02-12T01:23:20.916Z,3.40
2023-02-12T01:26:24.046Z,4.37
2023-02-12T01:29:26.213Z,5.10
2023-02-12T01:32:28.321Z,3.70
2023-02-12T01:35:30.360Z,8.10
2023-02-12T01:38:32.731Z,4.20
2023-02-12T01:41:43.309Z,3.73
2023-02-12T01:45:06.815Z,4.83
2023-02-12T01:48:16.386Z,3.93
2023-02-12T01:51:22.273Z,5.47
2023-02-12T01:54:26.040Z,3.73
2023-02-12T01:57:30.250Z,7.93
2023-02-12T02:00:33.308Z,4.57
2023-02-12T02:03:38.063Z,5.47
2023-02-12T02:06:52.229Z,5.93
2023-02-12T02:09:54.805Z,4.93
2023-02-12T02:13:15.641Z,6.70
2023-02-12T02:16:26.713Z,2.70
2023-02-12T02:19:44.838Z,5.97
2023-02-12T02:23:23.655Z,4.57
2023-02-12T02:26:25.714Z,6.23
2023-02-12T02:29:43.228Z,5.90
2023-02-12T02:33:05.054Z,4.23
2023-02-12T02:36:07.276Z,5.27
2023-02-12T02:39:17.963Z,3.37
2023-02-12T02:42:41.103Z,2.83
2023-02-12T02:45:57.933Z,2.30
2023-02-12T02:49:04.795Z,3.73
2023-02-12T02:52:12.467Z,4.73
2023-02-12T02:55:18.253Z,6.93
2023-02-12T02:58:29.004Z,3.50
2023-02-12T03:01:44.254Z,4.43
2023-02-12T03:05:14.519Z,6.32
2023-02-12T03:08:25.377Z,5.93
2023-02-12T03:11:30.730Z,8.10
2023-02-12T03:14:40.012Z,6.30
2023-02-12T03:17:46.872Z,9.80
2023-02-12T03:20:57.436Z,3.33
2023-02-12T03:24:02.985Z,6.33
2023-02-12T03:27:12.160Z,5.40
2023-02-12T03:30:15.608Z,6.83
2023-02-12T03:33:23.503Z,6.87
2023-02-12T03:36:49.344Z,3.77
2023-02-12T03:39:58.132Z,4.43
2023-02-12T03:43:05.995Z,6.47
2023-02-12T03:46:55.063Z,5.07
2023-02-12T03:50:22.967Z,3.20
2023-02-12T03:53:27.246Z,11.33
2023-02-12T03:56:50.434Z,4.07
2023-02-12T03:59:53.233Z,4.20
2023-02-12T04:02:55.822Z,2.80
2023-02-12T04:05:58.128Z,3.70
2023-02-12T04:09:04.946Z,7.27
2023-02-12T04:12:25.393Z,4.27
2023-02-12T04:15:51.588Z,6.17
2023-02-12T04:18:54.264Z,3.73
2023-02-12T04:22:22.721Z,4.93
2023-02-12T04:25:42.853Z,6.47
2023-02-12T04:29:06.049Z,3.87
2023-02-12T04:32:16.849Z,5.63
2023-02-12T04:35:24.947Z,4.30
2023-02-12T04:38:55.749Z,4.63
2023-02-12T04:42:02.329Z,3.93
2023-02-12T04:45:04.608Z,6.83
2023-02-12T04:48:07.446Z,4.63
2023-02-12T04:51:10.602Z,5.83
2023-02-12T04:54:14.083Z,4.93
2023-02-12T04:57:16.122Z,4.50
2023-02-12T05:00:18.879Z,5.50
2023-02-12T05:03:20.877Z,3.93
2023-02-12T05:06:22.871Z,3.80
2023-02-12T05:09:25.006Z,9.60
2023-02-12T05:12:27.098Z,10.00
2023-02-12T05:15:33.786Z,4.43
2023-02-12T05:18:37.812Z,3.90
2023-02-12T05:21:42.189Z,3.83
2023-02-12T05:24:44.325Z,5.38
2023-02-12T05:27:46.452Z,11.00
2023-02-12T05:30:48.620Z,5.20
2023-02-12T05:33:50.961Z,4.57
2023-02-12T05:36:53.034Z,6.23
2023-02-12T05:39:56.998Z,6.07
2023-02-12T05:42:59.000Z,7.80
2023-02-12T05:46:02.747Z,7.30
2023-02-12T05:49:04.921Z,6.80
2023-02-12T05:52:06.958Z,4.73
2023-02-12T05:55:09.001Z,3.03
2023-02-12T05:58:11.092Z,4.23
2023-02-12T06:01:20.204Z,5.60
2023-02-12T06:04:28.249Z,4.77
2023-02-12T06:07:30.387Z,7.37
2023-02-12T06:10:32.449Z,5.03
2023-02-12T06:13:35.191Z,5.80
2023-02-12T06:16:37.376Z,3.87
2023-02-12T06:19:39.599Z,4.27
2023-02-12T06:22:41.630Z,2.17
2023-02-12T06:25:45.699Z,5.27
2023-02-12T06:31:52.397Z,3.23
2023-02-12T06:34:54.639Z,16.17
2023-02-12T06:37:57.206Z,5.20
2023-02-12T06:41:02.787Z,3.87
2023-02-12T06:44:06.192Z,2.67
2023-02-12T06:47:08.214Z,3.57
2023-02-12T06:50:10.680Z,4.43
2023-02-12T06:53:12.794Z,6.47
2023-02-12T06:56:15.140Z,3.63
2023-02-12T06:59:17.697Z,4.23
2023-02-12T07:02:20.439Z,3.87
2023-02-12T07:05:23.694Z,6.90
2023-02-12T07:08:26.002Z,2.77
2023-02-12T07:11:30.734Z,3.13
2023-02-12T07:14:32.885Z,6.85
2023-02-12T07:17:36.305Z,2.90
2023-02-12T07:20:38.344Z,5.33
2023-02-12T07:23:40.705Z,4.97
2023-02-12T07:26:42.728Z,4.70
2023-02-12T07:29:44.802Z,3.77
2023-02-12T07:32:49.530Z,5.40
2023-02-12T07:35:51.595Z,3.90
2023-02-12T07:38:55.373Z,2.80
2023-02-12T07:41:58.282Z,6.13
2023-02-12T07:45:00.713Z,4.60
2023-02-12T07:48:03.272Z,4.23
2023-02-12T07:51:08.902Z,4.13
2023-02-12T07:54:11.561Z,3.27
2023-02-12T07:57:13.617Z,3.50
2023-02-12T08:00:16.400Z,8.30
2023-02-12T08:03:18.427Z,12.93
2023-02-12T08:06:21.792Z,5.77
2023-02-12T08:09:28.365Z,4.18
2023-02-12T08:12:30.423Z,5.97
2023-02-12T08:15:32.497Z,4.87
2023-02-12T08:18:35.083Z,7.40
2023-02-12T08:21:37.368Z,3.90
2023-02-12T08:24:39.455Z,4.33
2023-02-12T08:27:44.804Z,4.03
2023-02-12T08:30:47.777Z,6.10
2023-02-12T08:33:51.080Z,5.30
2023-02-12T08:36:54.482Z,4.53
2023-02-12T08:39:56.667Z,3.77
2023-02-12T08:42:58.688Z,4.10
2023-02-12T08:46:18.713Z,5.73
2023-02-12T08:49:24.138Z,3.33
2023-02-12T08:52:26.587Z,3.43
2023-02-12T08:55:28.690Z,4.13
2023-02-12T08:58:31.030Z,9.90
2023-02-12T09:01:35.467Z,8.63
2023-02-12T09:04:37.866Z,2.65
2023-02-12T09:07:40.187Z,7.77
2023-02-12T09:10:43.326Z,5.67
2023-02-12T09:13:47.191Z,8.60
2023-02-12T09:16:49.830Z,9.57
2023-02-12T09:19:51.930Z,6.00
2023-02-12T09:22:54.625Z,5.53
2023-02-12T09:25:56.978Z,7.73
2023-02-12T09:28:59.497Z,7.40
2023-02-12T09:32:04.958Z,6.97
2023-02-12T09:35:07.253Z,3.67
2023-02-12T09:38:10.077Z,4.50
2023-02-12T09:41:42.769Z,5.67
2023-02-12T09:45:23.326Z,8.27
2023-02-12T09:48:37.399Z,4.53
2023-02-12T09:51:42.923Z,5.33
2023-02-12T09:54:46.594Z,7.60
2023-02-12T09:57:48.995Z,9.87
2023-02-12T10:00:51.039Z,8.13
2023-02-12T10:03:54.169Z,5.90
2023-02-12T10:07:10.168Z,5.30
2023-02-12T10:10:36.742Z,7.90
2023-02-12T10:14:09.166Z,6.87
2023-02-12T10:17:19.137Z,5.40
2023-02-12T10:20:42.923Z,7.30
2023-02-12T10:24:07.085Z,6.00
2023-02-12T10:27:17.837Z,10.37
2023-02-12T10:30:37.761Z,4.27
2023-02-12T10:33:52.829Z,10.13
2023-02-12T10:40:21.956Z,3.47
2023-02-12T10:43:24.981Z,8.80
2023-02-12T10:46:31.250Z,6.07
2023-02-12T10:49:34.018Z,5.07
2023-02-12T10:52:55.321Z,9.10
2023-02-12T10:56:15.123Z,4.87
2023-02-12T10:59:24.325Z,5.77
2023-02-12T11:02:32.802Z,10.00
2023-02-12T11:05:37.624Z,5.63
2023-02-12T11:08:41.124Z,8.85
2023-02-12T11:11:43.688Z,10.60
2023-02-12T11:14:52.576Z,14.23
2023-02-12T11:18:05.545Z,7.57
2023-02-12T11:21:12.739Z,6.17
2023-02-12T11:24:27.089Z,6.97
2023-02-12T11:27:31.560Z,9.18
2023-02-12T11:30:34.783Z,10.15
2023-02-12T11:33:38.275Z,15.50
2023-02-12T11:36:46.958Z,11.37
2023-02-12T11:39:51.622Z,7.07
2023-02-12T11:43:01.177Z,16.40
2023-02-12T11:46:04.896Z,8.27
2023-02-12T11:49:09.480Z,9.30
2023-02-12T11:52:23.209Z,6.45
2023-02-12T11:55:30.564Z,6.63
2023-02-12T11:58:34.623Z,10.33
2023-02-12T12:01:41.882Z,10.30
2023-02-12T12:04:48.477Z,24.83
2023-02-12T12:07:59.771Z,12.50
2023-02-12T12:11:14.377Z,7.93
2023-02-12T12:14:26.768Z,29.98
2023-02-12T12:18:24.014Z,12.00
2023-02-12T12:21:48.793Z,6.80
2023-02-12T12:25:16.697Z,7.95
2023-02-12T12:28:37.297Z,9.73
2023-02-12T12:31:46.229Z,4.87
2023-02-12T12:34:49.123Z,11.93
2023-02-12T12:38:05.538Z,8.70
2023-02-12T12:41:26.651Z,12.33
2023-02-12T12:44:38.923Z,19.63
2023-02-12T12:47:44.073Z,14.83
2023-02-12T12:51:27.852Z,18.10
2023-02-12T12:54:53.168Z,15.90
2023-02-12T12:58:21.742Z,10.93
2023-02-12T13:02:07.779Z,9.40
2023-02-12T13:05:10.584Z,7.38
2023-02-12T13:09:03.139Z,8.77
2023-02-12T13:12:27.577Z,15.80
2023-02-12T13:15:36.138Z,15.50
2023-02-12T13:19:05.279Z,10.60
2023-02-12T13:22:16.355Z,14.13
2023-02-12T13:25:22.220Z,13.07
2023-02-12T13:28:31.157Z,14.93
2023-02-12T13:31:40.937Z,14.43
2023-02-12T13:34:44.606Z,8.23
2023-02-12T13:37:55.706Z,16.17
2023-02-12T13:41:08.719Z,13.05
2023-02-12T13:44:21.730Z,14.53
2023-02-12T13:47:39.274Z,15.60
2023-02-12T13:51:05.600Z,13.60
2023-02-12T13:54:34.781Z,11.47
2023-02-12T13:57:36.978Z,13.47
2023-02-12T14:00:47.822Z,19.50
2023-02-12T14:03:49.870Z,26.63
2023-02-12T14:07:01.386Z,20.50
2023-02-12T14:10:06.844Z,16.97
2023-02-12T14:13:25.335Z,13.23
2023-02-12T14:16:30.541Z,21.60
2023-02-12T14:19:54.334Z,13.97
2023-02-12T14:23:17.746Z,21.87
2023-02-12T14:26:23.333Z,13.47
2023-02-12T14:29:27.072Z,12.83
2023-02-12T14:32:53.479Z,15.87
2023-02-12T14:36:39.343Z,13.90
2023-02-12T14:39:41.783Z,14.47
2023-02-12T14:42:44.792Z,16.07
2023-02-12T14:45:46.869Z,20.83
2023-02-12T14:48:52.161Z,14.37
2023-02-12T14:51:59.696Z,17.37
2023-02-12T14:55:19.770Z,8.63
2023-02-12T14:58:25.833Z,22.50
2023-02-12T15:01:34.308Z,16.20
2023-02-12T15:04:40.472Z,14.30
2023-02-12T15:08:27.542Z,12.70
2023-02-12T15:11:43.253Z,16.03
2023-02-12T15:14:51.850Z,19.43
2023-02-12T15:18:23.169Z,26.53
2023-02-12T15:21:36.278Z,12.77
2023-02-12T15:24:38.998Z,18.80
2023-02-12T15:27:44.122Z,23.50
2023-02-12T15:30:46.718Z,14.37
2023-02-12T15:33:51.162Z,16.93
2023-02-12T15:36:54.954Z,17.98
2023-02-12T15:40:04.026Z,26.37
2023-02-12T15:43:16.958Z,13.97
2023-02-12T15:46:19.406Z,22.57
2023-02-12T15:49:25.859Z,23.63
2023-02-12T15:52:36.163Z,22.50
2023-02-12T15:55:42.416Z,19.53
2023-02-12T15:58:51.813Z,15.93
2023-02-12T16:02:03.722Z,17.37
2023-02-12T16:05:10.420Z,21.17
2023-02-12T16:08:17.536Z,17.15
2023-02-12T16:11:27.598Z,14.33
2023-02-12T16:14:51.704Z,18.90
2023-02-12T16:17:54.527Z,18.23
2023-02-12T16:21:06.465Z,19.10
2023-02-12T16:24:45.443Z,14.37
2023-02-12T16:28:18.218Z,22.53
2023-02-12T16:31:24.535Z,14.50
2023-02-12T16:34:39.301Z,19.27
2023-02-12T16:37:48.366Z,16.73
2023-02-12T16:41:27.086Z,14.50
2023-02-12T16:44:31.615Z,23.53
2023-02-12T16:47:36.372Z,24.73
2023-02-12T16:50:59.223Z,24.33
2023-02-12T16:54:03.881Z,22.50
2023-02-12T16:57:05.993Z,17.55
2023-02-12T17:00:10.530Z,17.67
2023-02-12T17:03:14.567Z,14.68
2023-02-12T17:06:18.733Z,20.83
2023-02-12T17:09:20.893Z,9.77
2023-02-12T17:12:23.039Z,17.13
2023-02-12T17:15:35.913Z,14.00
2023-02-12T17:18:38.613Z,13.10
2023-02-12T17:21:43.371Z,13.53
2023-02-12T17:27:53.464Z,31.40
2023-02-12T17:30:56.370Z,29.33
2023-02-12T17:34:00.580Z,12.03
2023-02-12T17:37:04.195Z,20.00
2023-02-12T17:40:07.184Z,18.83
2023-02-12T17:43:09.258Z,12.53
2023-02-12T17:46:14.212Z,15.23
2023-02-12T17:49:16.232Z,21.90
2023-02-12T17:52:18.357Z,28.27
2023-02-12T17:55:20.678Z,17.03
2023-02-12T17:58:22.757Z,21.77
2023-02-12T18:01:25.167Z,14.90
2023-02-12T18:04:28.193Z,19.53
2023-02-12T18:07:34.007Z,17.77
2023-02-12T18:10:44.655Z,16.90
2023-02-12T18:13:46.727Z,22.50
2023-02-12T18:16:48.905Z,18.37
2023-02-12T18:19:51.077Z,23.33
2023-02-12T18:22:53.079Z,23.67
2023-02-12T18:25:55.162Z,25.17
2023-02-12T18:28:58.711Z,18.50
2023-02-12T18:32:00.811Z,23.07
2023-02-12T18:35:06.684Z,20.10
2023-02-12T18:38:09.047Z,20.38
2023-02-12T18:41:14.448Z,23.00
2023-02-12T18:44:16.716Z,22.43
2023-02-12T18:47:19.719Z,26.90
2023-02-12T18:50:21.816Z,25.13
2023-02-12T18:53:23.910Z,26.37
2023-02-12T18:56:27.106Z,25.67
2023-02-12T18:59:29.185Z,24.63
2023-02-12T19:02:31.297Z,18.70
2023-02-12T19:05:33.420Z,16.63
2023-02-12T19:08:35.605Z,24.43
2023-02-12T19:11:38.016Z,20.33
2023-02-12T19:14:40.146Z,21.10
2023-02-12T19:17:42.319Z,20.20
2023-02-12T19:20:44.453Z,26.50
2023-02-12T19:23:47.114Z,21.27
2023-02-12T19:26:53.582Z,18.50
2023-02-12T19:30:01.990Z,34.63
2023-02-12T19:33:04.785Z,18.03
2023-02-12T19:36:08.478Z,15.60
2023-02-12T19:39:13.470Z,23.33
2023-02-12T19:42:17.336Z,27.63
2023-02-12T19:45:19.508Z,19.33
2023-02-12T19:48:22.418Z,22.63
2023-02-12T19:51:29.763Z,24.07
2023-02-12T19:54:31.890Z,17.90
2023-02-12T19:57:34.156Z,25.70
2023-02-12T20:00:36.354Z,19.97
2023-02-12T20:03:38.656Z,22.37
2023-02-12T20:06:41.308Z,20.87
2023-02-12T20:09:43.577Z,25.47
2023-02-12T20:12:45.574Z,19.93
2023-02-12T20:15:47.634Z,22.00
2023-02-12T20:18:52.304Z,22.03
2023-02-12T20:21:56.110Z,20.65
2023-02-12T20:24:58.208Z,18.00
2023-02-12T20:28:00.290Z,17.93
2023-02-12T20:31:17.649Z,26.30
2023-02-12T20:34:20.501Z,18.33
2023-02-12T20:37:22.748Z,16.07
2023-02-12T20:40:24.727Z,15.47
2023-02-12T20:43:29.621Z,25.87
2023-02-12T20:49:33.793Z,19.37
2023-02-12T20:52:36.015Z,27.50
2023-02-12T20:55:39.056Z,21.00
2023-02-12T20:58:45.031Z,21.63
2023-02-12T21:01:47.497Z,25.83
2023-02-12T21:04:53.590Z,26.30
2023-02-12T21:07:55.563Z,27.20
2023-02-12T21:11:02.767Z,13.70
2023-02-12T21:14:21.364Z,20.63
2023-02-12T21:17:24.791Z,23.30
2023-02-12T21:20:26.853Z,23.07
2023-02-12T21:23:29.795Z,25.57
2023-02-12T21:26:33.993Z,26.17
2023-02-12T21:29:36.176Z,28.85
2023-02-12T21:32:38.314Z,30.90
2023-02-12T21:35:40.800Z,22.27
2023-02-12T21:38:44.686Z,19.60
2023-02-12T21:41:47.359Z,24.48
2023-02-12T21:44:49.898Z,19.97
2023-02-12T21:47:52.376Z,13.40
2023-02-12T21:50:55.629Z,25.63
2023-02-12T21:54:01.439Z,23.70
2023-02-12T21:57:03.921Z,20.97
2023-02-12T22:00:07.656Z,15.30
2023-02-12T22:03:10.196Z,20.20
2023-02-12T22:06:14.148Z,16.90
2023-02-12T22:09:18.480Z,19.00
2023-02-12T22:12:21.268Z,24.77
2023-02-12T22:15:24.921Z,22.47
2023-02-12T22:18:27.890Z,22.70
2023-02-12T22:21:36.193Z,19.17
2023-02-12T22:24:44.150Z,16.27
2023-02-12T22:27:47.244Z,20.03
2023-02-12T22:30:50.167Z,16.27
2023-02-12T22:33:59.020Z,27.23
2023-02-12T22:37:02.241Z,15.90
2023-02-12T22:40:08.373Z,15.90
2023-02-12T22:43:16.924Z,17.27
2023-02-12T22:46:22.556Z,29.77
2023-02-12T22:49:24.816Z,19.17
2023-02-12T22:52:28.015Z,23.57
2023-02-12T22:55:30.240Z,13.23
2023-02-12T22:58:34.054Z,18.07
2023-02-12T23:01:36.401Z,17.83
2023-02-12T23:04:39.290Z,13.73
2023-02-12T23:07:43.930Z,21.15
2023-02-12T23:10:48.948Z,23.17
2023-02-12T23:13:51.985Z,17.47
2023-02-12T23:17:04.617Z,27.13
2023-02-12T23:20:09.109Z,13.00
2023-02-12T23:23:13.077Z,19.47
2023-02-12T23:26:28.536Z,22.83
2023-02-12T23:29:32.930Z,14.03
2023-02-12T23:32:38.489Z,16.77
2023-02-12T23:35:45.677Z,15.10
2023-02-12T23:38:48.178Z,12.90
2023-02-12T23:41:53.666Z,23.50
2023-02-12T23:44:56.962Z,10.03
2023-02-12T23:48:11.796Z,15.55
2023-02-12T23:51:14.994Z,18.50
2023-02-12T23:54:25.354Z,19.50
2023-02-12T23:57:28.208Z,15.53
